Other Surface Observations
Issued by NWS Missoula, MT

Home | Current Version | Previous Version | Text Only | Print | Product List | Glossary On
Versions: 1 2 3 4 5 6 7 8 9 10 11 12 13 14 15 16 17 18 19 20 21 22 23 24 25 26 27 28 29 30 31 32 33 34 35 36 37 38 39 40 41 42 43 44 45 46 47 48 49 50
000
SXUS55 KMSO 020503
OSOMSO
MONTANA AWOS SUMMARY
NATIONAL WEATHER SERVICE MISSOULA MT
1103 PM MDT WED JUL 1 2015

Montana AWOS Reports

ROUNDUP     |KRPX 020455Z AUTO 00000KT 25SM 21/14 A3003 RMK AO1 T02060139
SCOBEY      |K9S2 020455Z AUTO 00000KT 25SM 13/11 A3001 RMK AO1 T01330106
EKALAKA     |K97M 020455Z AUTO 14004KT 25SM 18/14 A3005 RMK AO1 T01780144
PLAINS      |KS34 020455Z AUTO 25SM 23/09 A3002 RMK AO1 T02280089
LAUREL      |K6S8 020455Z AUTO 00000KT 15SM 19/11 A3012 RMK AO1 T01890106
MALTA       |KM75 020455Z AUTO 00000KT 25SM 18/12 A3004 RMK AO1 T01780122
TWIN BRIDGES|K7S1 020455Z AUTO 34016G22KT 15SM 23/09 A3009 RMK AO1 T02280089




USA.gov is the U.S. government's official web portal to all federal, state and local government web resources and services.